createdAt,value
2023-02-13T00:01:15.405Z,6.06
2023-02-13T00:04:01.317Z,6.05
2023-02-13T00:06:48.650Z,6.04
2023-02-13T00:09:34.848Z,6.03
2023-02-13T00:12:20.842Z,6.02
2023-02-13T00:15:07.001Z,6.03
2023-02-13T00:17:53.051Z,6.04
2023-02-13T00:20:38.752Z,6.04
2023-02-13T00:23:25.814Z,6.05
2023-02-13T00:26:12.173Z,6.02
2023-02-13T00:29:02.607Z,6.01
2023-02-13T00:31:48.495Z,6.00
2023-02-13T00:34:34.881Z,6.00
2023-02-13T00:37:22.819Z,5.99
2023-02-13T00:40:13.172Z,6.02
2023-02-13T00:42:59.142Z,6.02
2023-02-13T00:45:45.030Z,6.01
2023-02-13T00:48:32.254Z,6.00
2023-02-13T00:51:17.952Z,5.99
2023-02-13T00:54:04.214Z,5.97
2023-02-13T00:56:51.293Z,5.96
2023-02-13T00:59:37.080Z,5.95
2023-02-13T01:02:22.983Z,5.95
2023-02-13T01:05:08.832Z,5.95
2023-02-13T01:07:55.539Z,5.95
2023-02-13T01:10:41.719Z,5.95
2023-02-13T01:13:29.094Z,5.94
2023-02-13T01:16:17.719Z,5.95
2023-02-13T01:19:04.018Z,5.92
2023-02-13T01:21:50.514Z,5.96
2023-02-13T01:24:37.711Z,5.95
2023-02-13T01:27:23.643Z,5.93
2023-02-13T01:30:13.754Z,5.91
2023-02-13T01:32:59.444Z,5.89
2023-02-13T01:35:45.363Z,5.87
2023-02-13T01:38:31.270Z,5.88
2023-02-13T01:41:17.024Z,5.89
2023-02-13T01:44:03.019Z,5.90
2023-02-13T01:46:50.086Z,5.90
2023-02-13T01:49:36.291Z,5.87
2023-02-13T01:52:22.204Z,5.87
2023-02-13T01:55:08.183Z,5.87
2023-02-13T01:57:55.619Z,5.86
2023-02-13T02:00:41.606Z,5.86
2023-02-13T02:03:29.006Z,5.87
2023-02-13T02:06:19.923Z,5.84
2023-02-13T02:09:10.189Z,5.86
2023-02-13T02:11:57.263Z,5.85
2023-02-13T02:14:43.539Z,5.83
2023-02-13T02:17:30.246Z,5.85
2023-02-13T02:20:21.546Z,5.84
2023-02-13T02:23:18.436Z,5.85
2023-02-13T02:26:16.657Z,5.83
2023-02-13T02:29:07.860Z,5.83
2023-02-13T02:32:03.228Z,5.84
2023-02-13T02:34:52.669Z,5.83
2023-02-13T02:37:43.838Z,5.81
2023-02-13T02:40:31.404Z,5.81
2023-02-13T02:43:22.698Z,5.81
2023-02-13T02:46:11.924Z,5.82
2023-02-13T02:49:19.224Z,5.81
2023-02-13T02:52:06.599Z,5.80
2023-02-13T02:55:09.412Z,5.79
2023-02-13T02:58:23.359Z,5.78
2023-02-13T03:01:28.284Z,5.81
2023-02-13T03:04:34.973Z,5.82
2023-02-13T03:07:22.163Z,5.81
2023-02-13T03:10:26.953Z,5.80
2023-02-13T03:13:22.717Z,5.82
2023-02-13T03:16:29.750Z,5.82
2023-02-13T03:19:35.113Z,5.79
2023-02-13T03:22:26.131Z,5.79
2023-02-13T03:25:13.575Z,5.79
2023-02-13T03:28:23.050Z,5.80
2023-02-13T03:31:10.834Z,5.79
2023-02-13T03:33:58.218Z,5.79
2023-02-13T03:37:05.110Z,5.77
2023-02-13T03:39:54.493Z,5.79
2023-02-13T03:42:41.964Z,5.80
2023-02-13T03:45:46.384Z,5.81
2023-02-13T03:48:50.752Z,5.81
2023-02-13T03:51:37.501Z,5.79
2023-02-13T03:54:43.878Z,5.78
2023-02-13T03:57:47.857Z,5.76
2023-02-13T04:00:34.404Z,5.80
2023-02-13T04:03:21.466Z,5.78
2023-02-13T04:06:07.999Z,5.77
2023-02-13T04:08:53.820Z,5.76
2023-02-13T04:11:42.484Z,5.75
2023-02-13T04:14:28.886Z,5.75
2023-02-13T04:17:15.327Z,5.73
2023-02-13T04:20:01.221Z,5.73
2023-02-13T04:22:47.394Z,5.74
2023-02-13T04:25:33.394Z,5.76
2023-02-13T04:28:20.744Z,5.79
2023-02-13T04:31:06.956Z,5.78
2023-02-13T04:33:53.058Z,5.78
2023-02-13T04:36:38.833Z,5.78
2023-02-13T04:39:25.094Z,5.74
2023-02-13T04:42:10.763Z,5.74
2023-02-13T04:44:57.788Z,5.77
2023-02-13T04:47:43.619Z,5.75
2023-02-13T04:50:29.597Z,5.75
2023-02-13T04:53:15.327Z,5.72
2023-02-13T04:56:01.119Z,5.71
2023-02-13T04:58:47.409Z,5.73
2023-02-13T05:01:34.573Z,5.75
2023-02-13T05:04:20.577Z,5.74
2023-02-13T05:07:06.397Z,5.75
2023-02-13T05:09:52.043Z,5.75
2023-02-13T05:12:38.388Z,5.76
2023-02-13T05:15:24.571Z,5.81
2023-02-13T05:18:11.823Z,5.85
2023-02-13T05:21:15.475Z,5.87
2023-02-13T05:24:01.520Z,5.87
2023-02-13T05:26:47.095Z,5.87
2023-02-13T05:29:33.045Z,5.90
2023-02-13T05:32:18.801Z,5.90
2023-02-13T05:35:06.287Z,5.92
2023-02-13T05:37:52.474Z,5.95
2023-02-13T05:40:38.330Z,5.98
2023-02-13T05:43:24.051Z,5.99
2023-02-13T05:46:10.527Z,6.01
2023-02-13T05:48:56.278Z,6.03
2023-02-13T05:51:43.427Z,6.05
2023-02-13T05:54:29.241Z,6.07
2023-02-13T05:57:14.922Z,6.04
2023-02-13T06:00:00.933Z,6.05
2023-02-13T06:02:46.782Z,6.04
2023-02-13T06:05:32.973Z,6.04
2023-02-13T06:08:20.036Z,6.05
2023-02-13T06:11:06.028Z,6.06
2023-02-13T06:13:51.826Z,6.10
2023-02-13T06:16:37.528Z,6.12
2023-02-13T06:19:23.317Z,6.14
2023-02-13T06:22:09.184Z,6.15
2023-02-13T06:24:56.275Z,6.15
2023-02-13T06:27:42.098Z,6.16
2023-02-13T06:30:28.024Z,6.15
2023-02-13T06:33:13.811Z,6.13
2023-02-13T06:35:59.615Z,6.12
2023-02-13T06:38:45.439Z,6.10
2023-02-13T06:41:32.694Z,6.10
2023-02-13T06:44:18.483Z,6.09
2023-02-13T06:47:04.294Z,6.07
2023-02-13T06:49:50.204Z,6.06
2023-02-13T06:52:36.590Z,6.06
2023-02-13T06:55:22.541Z,6.08
2023-02-13T06:58:09.772Z,6.06
2023-02-13T07:00:55.954Z,6.06
2023-02-13T07:03:42.709Z,6.05
2023-02-13T07:06:29.006Z,6.05
2023-02-13T07:09:15.173Z,6.07
2023-02-13T07:12:03.342Z,6.10
2023-02-13T07:14:50.511Z,6.13
2023-02-13T07:17:36.311Z,6.17
2023-02-13T07:20:21.988Z,6.18
2023-02-13T07:23:07.908Z,6.20
2023-02-13T07:25:53.665Z,6.20
2023-02-13T07:28:39.529Z,6.21
2023-02-13T07:31:26.806Z,6.22
2023-02-13T07:34:12.617Z,6.23
2023-02-13T07:36:58.342Z,6.22
2023-02-13T07:39:44.162Z,6.23
2023-02-13T07:42:29.992Z,6.22
2023-02-13T07:45:16.303Z,6.25
2023-02-13T07:48:03.440Z,6.27
2023-02-13T07:50:49.257Z,6.26
2023-02-13T07:53:35.099Z,6.28
2023-02-13T07:56:20.943Z,6.31
2023-02-13T07:59:07.878Z,6.32
2023-02-13T08:01:54.158Z,6.37
2023-02-13T08:04:41.845Z,6.40
2023-02-13T08:07:27.575Z,6.41
2023-02-13T08:10:31.671Z,6.43
2023-02-13T08:13:17.722Z,6.48
2023-02-13T08:16:03.348Z,6.51
2023-02-13T08:18:49.067Z,6.57
2023-02-13T08:21:38.086Z,6.61
2023-02-13T08:24:23.964Z,6.64
2023-02-13T08:27:12.228Z,6.70
2023-02-13T08:29:58.400Z,6.75
2023-02-13T08:32:53.925Z,6.79
2023-02-13T08:35:40.496Z,6.84
2023-02-13T08:38:27.604Z,6.89
2023-02-13T08:41:13.417Z,6.94
2023-02-13T08:43:59.092Z,7.00
2023-02-13T08:46:44.929Z,7.05
2023-02-13T08:49:30.924Z,7.09
2023-02-13T08:52:16.801Z,7.13
2023-02-13T08:55:04.304Z,7.19
2023-02-13T08:57:50.448Z,7.23
2023-02-13T09:00:36.257Z,7.27
2023-02-13T09:03:22.012Z,7.36
2023-02-13T09:06:07.707Z,7.37
2023-02-13T09:08:53.475Z,7.45
2023-02-13T09:11:40.768Z,7.48
2023-02-13T09:14:26.723Z,7.56
2023-02-13T09:17:12.620Z,7.62
2023-02-13T09:19:58.638Z,7.66
2023-02-13T09:22:44.649Z,7.74
2023-02-13T09:25:30.452Z,7.80
2023-02-13T09:28:17.723Z,7.83
2023-02-13T09:31:06.038Z,7.89
2023-02-13T09:33:52.322Z,7.94
2023-02-13T09:36:38.129Z,7.99
2023-02-13T09:39:23.882Z,8.05
2023-02-13T09:42:13.739Z,8.11
2023-02-13T09:45:02.496Z,8.12
2023-02-13T09:47:48.669Z,8.18
2023-02-13T09:50:34.983Z,8.25
2023-02-13T09:53:22.305Z,8.29
2023-02-13T09:56:10.651Z,8.40
2023-02-13T09:58:58.552Z,8.46
2023-02-13T10:01:46.807Z,8.56
2023-02-13T10:04:32.957Z,8.62
2023-02-13T10:07:20.141Z,8.68
2023-02-13T10:10:08.344Z,8.71
2023-02-13T10:12:59.019Z,8.84
2023-02-13T10:15:45.938Z,8.92
2023-02-13T10:18:36.159Z,8.96
2023-02-13T10:21:22.783Z,9.02
2023-02-13T10:24:11.776Z,9.05
2023-02-13T10:26:57.708Z,9.09
2023-02-13T10:30:01.701Z,9.14
2023-02-13T10:32:49.266Z,9.21
2023-02-13T10:35:36.713Z,9.20
2023-02-13T10:38:23.968Z,9.24
2023-02-13T10:41:22.790Z,9.28
2023-02-13T10:44:13.531Z,9.32
2023-02-13T10:47:02.632Z,9.36
2023-02-13T10:49:52.639Z,9.38
2023-02-13T10:52:43.344Z,9.41
2023-02-13T10:55:39.757Z,9.45
2023-02-13T10:58:27.148Z,9.48
2023-02-13T11:01:14.754Z,9.48
2023-02-13T11:04:05.708Z,9.49
2023-02-13T11:06:55.760Z,9.53
2023-02-13T11:09:43.356Z,9.53
2023-02-13T11:12:29.823Z,9.63
2023-02-13T11:15:21.518Z,9.69
2023-02-13T11:18:12.528Z,9.73
2023-02-13T11:21:03.932Z,9.74
2023-02-13T11:23:50.703Z,9.80
2023-02-13T11:26:38.270Z,9.87
2023-02-13T11:29:25.676Z,9.92
2023-02-13T11:32:19.113Z,9.99
2023-02-13T11:35:18.029Z,10.12
2023-02-13T11:38:15.296Z,10.22
2023-02-13T11:41:05.233Z,10.14
2023-02-13T11:43:54.321Z,10.28
2023-02-13T11:46:47.338Z,10.28
2023-02-13T11:49:34.150Z,10.33
2023-02-13T11:52:24.274Z,10.37
2023-02-13T11:55:25.302Z,10.35
2023-02-13T11:58:23.150Z,10.45
2023-02-13T12:01:12.093Z,10.54
2023-02-13T12:03:59.106Z,10.59
2023-02-13T12:06:59.434Z,10.63
2023-02-13T12:09:45.846Z,10.63
2023-02-13T12:12:35.017Z,10.65
2023-02-13T12:15:21.870Z,10.70
2023-02-13T12:18:11.604Z,10.65
2023-02-13T12:20:58.994Z,10.69
2023-02-13T12:23:46.411Z,10.66
2023-02-13T12:26:32.731Z,10.70
2023-02-13T12:29:22.874Z,10.71
2023-02-13T12:32:11.854Z,10.68
2023-02-13T12:35:06.492Z,10.62
2023-02-13T12:37:56.501Z,10.57
2023-02-13T12:40:47.204Z,10.52
2023-02-13T12:43:47.513Z,10.47
2023-02-13T12:46:37.080Z,10.43
2023-02-13T12:49:29.904Z,10.38
2023-02-13T12:52:19.990Z,10.36
2023-02-13T12:55:13.123Z,10.33
2023-02-13T12:58:02.927Z,10.26
2023-02-13T13:00:50.659Z,10.22
2023-02-13T13:03:38.954Z,10.17
2023-02-13T13:06:31.743Z,10.21
2023-02-13T13:09:21.523Z,10.15
2023-02-13T13:12:31.349Z,10.19
2023-02-13T13:15:20.463Z,10.15
2023-02-13T13:18:09.254Z,10.16
2023-02-13T13:20:59.694Z,10.17
2023-02-13T13:23:47.496Z,10.12
2023-02-13T13:26:35.917Z,10.15
2023-02-13T13:29:22.577Z,10.15
2023-02-13T13:32:10.307Z,10.15
2023-02-13T13:34:56.410Z,10.08
2023-02-13T13:37:43.709Z,10.07
2023-02-13T13:40:33.622Z,9.93
2023-02-13T13:43:21.482Z,9.80
2023-02-13T13:46:09.148Z,9.82
2023-02-13T13:49:06.749Z,9.62
2023-02-13T13:51:52.878Z,9.72
2023-02-13T13:54:38.624Z,9.77
2023-02-13T13:57:24.647Z,9.76
2023-02-13T14:00:26.020Z,9.87
2023-02-13T14:03:36.615Z,9.89
2023-02-13T14:06:24.168Z,9.97
2023-02-13T14:09:28.850Z,9.90
2023-02-13T14:12:42.208Z,9.91
2023-02-13T14:15:45.873Z,9.94
2023-02-13T14:18:31.989Z,9.92
2023-02-13T14:21:24.647Z,9.92
2023-02-13T14:24:11.534Z,9.89
2023-02-13T14:27:05.363Z,9.91
2023-02-13T14:29:51.999Z,9.95
2023-02-13T14:32:38.082Z,9.91
2023-02-13T14:35:24.618Z,9.78
2023-02-13T14:38:23.029Z,9.81
2023-02-13T14:41:26.610Z,9.72
2023-02-13T14:44:15.921Z,9.74
2023-02-13T14:47:02.974Z,9.79
2023-02-13T14:49:48.989Z,9.79
2023-02-13T14:52:35.352Z,9.71
2023-02-13T14:55:36.101Z,9.76
2023-02-13T14:58:22.230Z,9.73
2023-02-13T15:01:09.142Z,9.68
2023-02-13T15:03:55.917Z,9.68
2023-02-13T15:06:42.239Z,9.69
2023-02-13T15:09:32.245Z,9.72
2023-02-13T15:12:26.574Z,9.71
2023-02-13T15:15:23.384Z,9.67
2023-02-13T15:18:10.296Z,9.69
2023-02-13T15:20:58.024Z,9.63
2023-02-13T15:23:44.116Z,9.63
2023-02-13T15:26:30.459Z,9.62
2023-02-13T15:29:27.815Z,9.61
2023-02-13T15:32:18.710Z,9.33
2023-02-13T15:35:11.270Z,9.37
2023-02-13T15:37:57.484Z,9.35
2023-02-13T15:40:43.692Z,9.33
2023-02-13T15:43:33.134Z,9.20
2023-02-13T15:46:21.795Z,9.22
2023-02-13T15:49:08.316Z,9.20
2023-02-13T15:52:03.018Z,9.20
2023-02-13T15:54:49.863Z,9.16
2023-02-13T15:57:35.743Z,9.19
2023-02-13T16:00:22.689Z,9.03
2023-02-13T16:03:14.681Z,8.98
2023-02-13T16:06:00.732Z,8.87
2023-02-13T16:08:46.559Z,8.84
2023-02-13T16:11:33.358Z,8.66
2023-02-13T16:14:20.706Z,8.66
2023-02-13T16:17:06.923Z,8.56
2023-02-13T16:19:55.851Z,8.41
2023-02-13T16:22:41.820Z,8.35
2023-02-13T16:25:28.354Z,8.37
2023-02-13T16:28:15.856Z,8.31
2023-02-13T16:31:02.787Z,8.21
2023-02-13T16:33:48.976Z,8.16
2023-02-13T16:36:37.225Z,8.11
2023-02-13T16:39:26.693Z,8.05
2023-02-13T16:42:14.344Z,7.99
2023-02-13T16:45:21.846Z,7.91
2023-02-13T16:48:09.890Z,7.86
2023-02-13T16:50:56.259Z,7.75
2023-02-13T16:53:43.581Z,7.72
2023-02-13T16:56:29.438Z,7.66
2023-02-13T16:59:22.799Z,7.60
2023-02-13T17:02:16.984Z,7.53
2023-02-13T17:05:14.530Z,7.47
2023-02-13T17:08:01.361Z,7.38
2023-02-13T17:11:02.825Z,7.32
2023-02-13T17:13:48.708Z,7.22
2023-02-13T17:16:34.657Z,7.21
2023-02-13T17:19:20.863Z,7.11
2023-02-13T17:22:06.541Z,7.00
2023-02-13T17:24:52.384Z,6.96
2023-02-13T17:27:39.346Z,6.91
2023-02-13T17:30:25.768Z,6.80
2023-02-13T17:33:13.271Z,6.75
2023-02-13T17:35:59.393Z,6.67
2023-02-13T17:38:45.604Z,6.53
2023-02-13T17:41:31.577Z,6.49
2023-02-13T17:44:18.567Z,6.42
2023-02-13T17:47:04.872Z,6.29
2023-02-13T17:49:51.519Z,6.25
2023-02-13T17:52:38.790Z,6.16
2023-02-13T17:55:25.604Z,6.11
2023-02-13T17:58:11.652Z,6.00
2023-02-13T18:00:59.114Z,5.90
2023-02-13T18:03:45.420Z,5.86
2023-02-13T18:06:31.326Z,5.77
2023-02-13T18:09:16.912Z,5.66
2023-02-13T18:12:05.574Z,5.59
2023-02-13T18:14:52.537Z,5.52
2023-02-13T18:17:40.074Z,5.47
2023-02-13T18:20:25.997Z,5.36
2023-02-13T18:23:12.065Z,5.26
2023-02-13T18:26:04.402Z,5.23
2023-02-13T18:28:52.232Z,5.16
2023-02-13T18:31:38.252Z,5.08
2023-02-13T18:34:25.882Z,4.98
2023-02-13T18:37:11.528Z,4.92
2023-02-13T18:39:57.458Z,4.87
2023-02-13T18:42:44.211Z,4.76
2023-02-13T18:45:30.622Z,4.70
2023-02-13T18:48:16.756Z,4.61
2023-02-13T18:51:04.789Z,4.57
2023-02-13T18:53:50.764Z,4.45
2023-02-13T18:56:36.658Z,4.39
2023-02-13T18:59:23.047Z,4.31
2023-02-13T19:02:09.930Z,4.23
2023-02-13T19:04:55.636Z,4.13
2023-02-13T19:07:42.854Z,4.06
2023-02-13T19:10:28.684Z,3.98
2023-02-13T19:13:15.035Z,3.91
2023-02-13T19:16:04.265Z,3.80
2023-02-13T19:18:52.963Z,3.74
2023-02-13T19:21:38.905Z,3.64
2023-02-13T19:24:26.000Z,3.54
2023-02-13T19:27:11.855Z,3.45
2023-02-13T19:29:57.713Z,3.39
2023-02-13T19:32:43.574Z,3.32
2023-02-13T19:35:29.320Z,3.23
2023-02-13T19:38:15.770Z,3.17
2023-02-13T19:41:05.258Z,3.10
2023-02-13T19:43:53.281Z,3.02
2023-02-13T19:46:39.466Z,2.95
2023-02-13T19:49:25.815Z,2.90
2023-02-13T19:52:11.631Z,2.83
2023-02-13T19:54:57.613Z,2.78
2023-02-13T19:57:44.891Z,2.72
2023-02-13T20:00:30.577Z,2.63
2023-02-13T20:03:16.518Z,2.58
2023-02-13T20:06:06.339Z,2.52
2023-02-13T20:08:52.204Z,2.43
2023-02-13T20:11:38.203Z,2.37
2023-02-13T20:14:25.940Z,2.30
2023-02-13T20:17:12.327Z,2.23
2023-02-13T20:19:58.188Z,2.18
2023-02-13T20:22:44.267Z,2.12
2023-02-13T20:25:32.025Z,2.07
2023-02-13T20:28:17.721Z,2.02
2023-02-13T20:31:11.351Z,1.95
2023-02-13T20:33:57.907Z,1.90
2023-02-13T20:36:43.961Z,1.84
2023-02-13T20:39:30.053Z,1.79
2023-02-13T20:42:16.179Z,1.74
2023-02-13T20:45:01.939Z,1.67
2023-02-13T20:47:49.891Z,1.62
2023-02-13T20:50:36.036Z,1.58
2023-02-13T20:53:21.725Z,1.52
2023-02-13T20:56:08.238Z,1.47
2023-02-13T20:58:54.376Z,1.43
2023-02-13T21:01:41.465Z,1.40
2023-02-13T21:04:30.106Z,1.32
2023-02-13T21:07:16.143Z,1.29
2023-02-13T21:10:01.923Z,1.23
2023-02-13T21:12:47.666Z,1.18
2023-02-13T21:15:33.810Z,1.13
2023-02-13T21:18:21.356Z,1.05
2023-02-13T21:21:09.151Z,1.03
2023-02-13T21:23:55.208Z,1.01
2023-02-13T21:26:41.086Z,0.96
2023-02-13T21:29:27.048Z,0.93
2023-02-13T21:32:12.912Z,0.87
2023-02-13T21:34:59.061Z,0.87
2023-02-13T21:37:46.114Z,0.84
2023-02-13T21:40:31.821Z,0.81
2023-02-13T21:43:17.627Z,0.78
2023-02-13T21:46:07.315Z,0.74
2023-02-13T21:48:54.277Z,0.73
2023-02-13T21:51:40.225Z,0.70
2023-02-13T21:54:28.279Z,0.65
2023-02-13T21:57:14.461Z,0.63
2023-02-13T22:00:01.926Z,0.62
2023-02-13T22:02:47.947Z,0.58
2023-02-13T22:05:34.164Z,0.56
2023-02-13T22:08:20.163Z,0.55
2023-02-13T22:11:08.134Z,0.53
2023-02-13T22:13:55.334Z,0.48
2023-02-13T22:16:42.474Z,0.49
2023-02-13T22:19:28.434Z,0.45
2023-02-13T22:22:15.846Z,0.43
2023-02-13T22:25:01.419Z,0.42
2023-02-13T22:27:48.750Z,0.39
2023-02-13T22:30:35.102Z,0.39
2023-02-13T22:33:21.259Z,0.38
2023-02-13T22:36:07.448Z,0.36
2023-02-13T22:38:53.467Z,0.32
2023-02-13T22:41:39.245Z,0.32
2023-02-13T22:44:26.476Z,0.29
2023-02-13T22:47:12.382Z,0.27
2023-02-13T22:49:58.048Z,0.25
2023-02-13T22:52:43.919Z,0.24
2023-02-13T22:55:29.484Z,0.24
2023-02-13T22:58:15.298Z,0.22
2023-02-13T23:01:02.536Z,0.19
2023-02-13T23:03:48.253Z,0.17
2023-02-13T23:06:33.978Z,0.17
2023-02-13T23:09:19.815Z,0.15
2023-02-13T23:12:23.396Z,0.12
2023-02-13T23:15:10.148Z,0.11
2023-02-13T23:18:17.836Z,0.11
2023-02-13T23:21:04.874Z,0.10
2023-02-13T23:23:51.128Z,0.09
2023-02-13T23:26:37.009Z,0.07
2023-02-13T23:29:22.882Z,0.07
2023-02-13T23:32:08.909Z,0.05
2023-02-13T23:34:56.532Z,0.03
2023-02-13T23:37:42.396Z,0.03
2023-02-13T23:40:28.152Z,0.02
2023-02-13T23:43:13.988Z,0.01
2023-02-13T23:45:59.584Z,-0.02
2023-02-13T23:48:45.867Z,-0.04
2023-02-13T23:51:32.973Z,-0.04
2023-02-13T23:54:19.372Z,-0.04
2023-02-13T23:57:05.406Z,-0.05
2023-02-13T23:59:51.856Z,-0.09
